Terminal Aerodrome Forecast
Issued by NWS

Home | Current Version | Previous Version | Text Only | Print | Product List | Glossary On
Versions: 1 2 3 4 5 6 7 8 9 10 11 12 13 14
000
FTUS42 KMLB 042333
TAFFPR
TAF
KFPR 042333Z 0500/0524 13007KT P6SM SCT035
     FM051200 VRB03KT P6SM FEW035
     FM051600 11008KT P6SM VCSH SCT035 SCT250 PROB30 0517/0521 TS
      BKN035CB BKN070
     FM052200 13008KT P6SM SCT035 SCT250=

USA.gov is the U.S. government's official web portal to all federal, state and local government web resources and services.